sensor_id;sensor_type;location;lat;lon;timestamp;P1;durP1;ratioP1;P2;durP2;ratioP2
62588;SDS011;58504;48.770;9.148;2022-10-04T00:00:27;2.97;;;2.13;;
62588;SDS011;58504;48.770;9.148;2022-10-04T00:03:04;4.32;;;1.60;;
62588;SDS011;58504;48.770;9.148;2022-10-04T00:05:34;2.30;;;2.10;;
62588;SDS011;58504;48.770;9.148;2022-10-04T00:08:04;2.42;;;1.92;;
62588;SDS011;58504;48.770;9.148;2022-10-04T00:10:39;2.55;;;2.35;;
62588;SDS011;58504;48.770;9.148;2022-10-04T00:13:06;1.80;;;1.70;;
62588;SDS011;58504;48.770;9.148;2022-10-04T00:15:43;2.17;;;1.98;;
62588;SDS011;58504;48.770;9.148;2022-10-04T00:18:20;1.52;;;1.40;;
62588;SDS011;58504;48.770;9.148;2022-10-04T00:20:55;1.98;;;1.80;;
62588;SDS011;58504;48.770;9.148;2022-10-04T00:23:42;2.00;;;1.75;;
62588;SDS011;58504;48.770;9.148;2022-10-04T00:27:08;1.83;;;1.70;;
62588;SDS011;58504;48.770;9.148;2022-10-04T00:29:30;1.67;;;1.58;;
62588;SDS011;58504;48.770;9.148;2022-10-04T00:34:50;1.50;;;1.40;;
62588;SDS011;58504;48.770;9.148;2022-10-04T00:37:18;2.60;;;1.83;;
62588;SDS011;58504;48.770;9.148;2022-10-04T00:39:46;2.53;;;1.75;;
62588;SDS011;58504;48.770;9.148;2022-10-04T00:42:33;2.58;;;1.75;;
62588;SDS011;58504;48.770;9.148;2022-10-04T00:48:22;3.92;;;1.70;;
62588;SDS011;58504;48.770;9.148;2022-10-04T00:50:59;1.70;;;1.60;;
62588;SDS011;58504;48.770;9.148;2022-10-04T00:56:27;1.60;;;1.50;;
62588;SDS011;58504;48.770;9.148;2022-10-04T00:59:10;1.52;;;1.42;;
62588;SDS011;58504;48.770;9.148;2022-10-04T01:01:43;1.58;;;1.48;;
62588;SDS011;58504;48.770;9.148;2022-10-04T01:04:20;1.40;;;1.30;;
62588;SDS011;58504;48.770;9.148;2022-10-04T01:06:52;1.67;;;1.58;;
62588;SDS011;58504;48.770;9.148;2022-10-04T01:09:19;1.60;;;1.50;;
62588;SDS011;58504;48.770;9.148;2022-10-04T01:11:49;1.92;;;1.80;;
62588;SDS011;58504;48.770;9.148;2022-10-04T01:14:27;2.22;;;1.45;;
62588;SDS011;58504;48.770;9.148;2022-10-04T01:17:01;1.45;;;1.30;;
62588;SDS011;58504;48.770;9.148;2022-10-04T01:19:29;1.90;;;1.55;;
62588;SDS011;58504;48.770;9.148;2022-10-04T01:21:57;1.95;;;1.85;;
62588;SDS011;58504;48.770;9.148;2022-10-04T01:24:35;1.75;;;1.45;;
62588;SDS011;58504;48.770;9.148;2022-10-04T01:27:03;1.48;;;1.40;;
62588;SDS011;58504;48.770;9.148;2022-10-04T01:29:50;1.63;;;1.52;;
62588;SDS011;58504;48.770;9.148;2022-10-04T01:32:16;1.70;;;1.60;;
62588;SDS011;58504;48.770;9.148;2022-10-04T01:34:43;1.63;;;1.52;;
62588;SDS011;58504;48.770;9.148;2022-10-04T01:37:10;1.30;;;1.20;;
62588;SDS011;58504;48.770;9.148;2022-10-04T01:39:39;1.52;;;1.42;;
62588;SDS011;58504;48.770;9.148;2022-10-04T01:42:07;1.80;;;1.70;;
62588;SDS011;58504;48.770;9.148;2022-10-04T01:44:39;2.35;;;1.42;;
62588;SDS011;58504;48.770;9.148;2022-10-04T01:47:14;1.80;;;1.70;;
62588;SDS011;58504;48.770;9.148;2022-10-04T01:49:42;1.70;;;1.60;;
62588;SDS011;58504;48.770;9.148;2022-10-04T01:52:13;1.25;;;1.25;;
62588;SDS011;58504;48.770;9.148;2022-10-04T01:54:45;1.77;;;1.67;;
62588;SDS011;58504;48.770;9.148;2022-10-04T01:57:15;1.43;;;1.33;;
62588;SDS011;58504;48.770;9.148;2022-10-04T01:59:45;1.48;;;1.38;;
62588;SDS011;58504;48.770;9.148;2022-10-04T02:02:18;2.38;;;1.73;;
62588;SDS011;58504;48.770;9.148;2022-10-04T02:04:50;1.73;;;1.48;;
62588;SDS011;58504;48.770;9.148;2022-10-04T02:07:19;1.40;;;1.30;;
62588;SDS011;58504;48.770;9.148;2022-10-04T02:09:49;1.80;;;1.20;;
62588;SDS011;58504;48.770;9.148;2022-10-04T02:12:20;1.25;;;1.23;;
62588;SDS011;58504;48.770;9.148;2022-10-04T02:14:48;1.40;;;1.40;;
62588;SDS011;58504;48.770;9.148;2022-10-04T02:17:18;1.40;;;1.30;;
62588;SDS011;58504;48.770;9.148;2022-10-04T02:19:46;1.45;;;1.35;;
62588;SDS011;58504;48.770;9.148;2022-10-04T02:22:14;1.50;;;1.40;;
62588;SDS011;58504;48.770;9.148;2022-10-04T02:24:42;1.75;;;1.63;;
62588;SDS011;58504;48.770;9.148;2022-10-04T02:27:11;1.88;;;1.77;;
62588;SDS011;58504;48.770;9.148;2022-10-04T02:29:38;1.90;;;1.80;;
62588;SDS011;58504;48.770;9.148;2022-10-04T02:32:05;2.05;;;1.80;;
62588;SDS011;58504;48.770;9.148;2022-10-04T02:34:51;1.27;;;1.27;;
62588;SDS011;58504;48.770;9.148;2022-10-04T02:37:20;1.48;;;1.40;;
62588;SDS011;58504;48.770;9.148;2022-10-04T02:39:48;1.58;;;1.33;;
62588;SDS011;58504;48.770;9.148;2022-10-04T02:42:20;2.08;;;1.40;;
62588;SDS011;58504;48.770;9.148;2022-10-04T02:45:01;1.48;;;1.42;;
62588;SDS011;58504;48.770;9.148;2022-10-04T02:47:34;1.30;;;1.30;;
62588;SDS011;58504;48.770;9.148;2022-10-04T02:50:12;1.92;;;1.67;;
62588;SDS011;58504;48.770;9.148;2022-10-04T02:52:49;1.30;;;1.30;;
62588;SDS011;58504;48.770;9.148;2022-10-04T02:55:23;1.40;;;1.23;;
62588;SDS011;58504;48.770;9.148;2022-10-04T02:57:54;1.70;;;1.60;;
62588;SDS011;58504;48.770;9.148;2022-10-04T03:00:23;1.95;;;1.85;;
62588;SDS011;58504;48.770;9.148;2022-10-04T03:03:10;1.38;;;1.33;;
62588;SDS011;58504;48.770;9.148;2022-10-04T03:05:45;1.40;;;1.30;;
62588;SDS011;58504;48.770;9.148;2022-10-04T03:08:19;1.80;;;1.70;;
62588;SDS011;58504;48.770;9.148;2022-10-04T03:10:46;1.35;;;1.35;;
62588;SDS011;58504;48.770;9.148;2022-10-04T03:13:16;1.40;;;1.30;;
62588;SDS011;58504;48.770;9.148;2022-10-04T03:15:44;1.45;;;1.45;;
62588;SDS011;58504;48.770;9.148;2022-10-04T03:18:12;1.75;;;1.65;;
62588;SDS011;58504;48.770;9.148;2022-10-04T03:20:40;1.60;;;1.50;;
62588;SDS011;58504;48.770;9.148;2022-10-04T03:23:07;1.85;;;1.40;;
62588;SDS011;58504;48.770;9.148;2022-10-04T03:25:38;1.15;;;1.00;;
62588;SDS011;58504;48.770;9.148;2022-10-04T03:28:10;1.20;;;1.20;;
62588;SDS011;58504;48.770;9.148;2022-10-04T03:30:40;1.60;;;1.50;;
62588;SDS011;58504;48.770;9.148;2022-10-04T03:33:11;1.38;;;1.30;;
62588;SDS011;58504;48.770;9.148;2022-10-04T03:35:45;1.90;;;1.80;;
62588;SDS011;58504;48.770;9.148;2022-10-04T03:38:15;1.73;;;1.38;;
62588;SDS011;58504;48.770;9.148;2022-10-04T03:40:50;1.02;;;1.02;;
62588;SDS011;58504;48.770;9.148;2022-10-04T03:43:21;1.90;;;1.80;;
62588;SDS011;58504;48.770;9.148;2022-10-04T03:45:52;1.88;;;1.77;;
62588;SDS011;58504;48.770;9.148;2022-10-04T03:48:29;1.50;;;1.40;;
62588;SDS011;58504;48.770;9.148;2022-10-04T03:50:57;1.50;;;1.33;;
62588;SDS011;58504;48.770;9.148;2022-10-04T03:53:29;1.58;;;1.48;;
62588;SDS011;58504;48.770;9.148;2022-10-04T03:56:01;1.63;;;1.52;;
62588;SDS011;58504;48.770;9.148;2022-10-04T03:58:34;1.23;;;1.23;;
62588;SDS011;58504;48.770;9.148;2022-10-04T04:01:04;1.55;;;1.45;;
62588;SDS011;58504;48.770;9.148;2022-10-04T04:03:45;1.45;;;1.35;;
62588;SDS011;58504;48.770;9.148;2022-10-04T04:06:25;1.50;;;1.40;;
62588;SDS011;58504;48.770;9.148;2022-10-04T04:08:59;1.83;;;1.58;;
62588;SDS011;58504;48.770;9.148;2022-10-04T04:11:27;1.60;;;1.50;;
62588;SDS011;58504;48.770;9.148;2022-10-04T04:13:57;1.33;;;1.30;;
62588;SDS011;58504;48.770;9.148;2022-10-04T04:16:29;1.52;;;1.40;;
62588;SDS011;58504;48.770;9.148;2022-10-04T04:18:58;1.35;;;1.23;;
62588;SDS011;58504;48.770;9.148;2022-10-04T04:21:27;1.48;;;1.38;;
62588;SDS011;58504;48.770;9.148;2022-10-04T04:23:55;1.52;;;1.42;;
62588;SDS011;58504;48.770;9.148;2022-10-04T04:26:26;1.48;;;1.33;;
62588;SDS011;58504;48.770;9.148;2022-10-04T04:29:01;1.00;;;1.00;;
62588;SDS011;58504;48.770;9.148;2022-10-04T04:31:34;1.20;;;1.20;;
62588;SDS011;58504;48.770;9.148;2022-10-04T04:34:12;1.70;;;1.20;;
62588;SDS011;58504;48.770;9.148;2022-10-04T04:36:42;1.50;;;1.40;;
62588;SDS011;58504;48.770;9.148;2022-10-04T04:39:11;1.60;;;1.50;;
62588;SDS011;58504;48.770;9.148;2022-10-04T04:42:01;1.67;;;1.57;;
62588;SDS011;58504;48.770;9.148;2022-10-04T04:44:32;1.40;;;1.30;;
62588;SDS011;58504;48.770;9.148;2022-10-04T04:47:00;2.03;;;1.73;;
62588;SDS011;58504;48.770;9.148;2022-10-04T04:49:35;1.25;;;1.20;;
62588;SDS011;58504;48.770;9.148;2022-10-04T04:52:04;1.27;;;1.27;;
62588;SDS011;58504;48.770;9.148;2022-10-04T04:54:33;1.25;;;1.10;;
62588;SDS011;58504;48.770;9.148;2022-10-04T04:56:59;1.20;;;1.10;;
62588;SDS011;58504;48.770;9.148;2022-10-04T04:59:26;1.20;;;1.20;;
62588;SDS011;58504;48.770;9.148;2022-10-04T05:01:53;1.67;;;1.58;;
62588;SDS011;58504;48.770;9.148;2022-10-04T05:04:22;1.00;;;1.00;;
62588;SDS011;58504;48.770;9.148;2022-10-04T05:06:58;1.10;;;1.10;;
62588;SDS011;58504;48.770;9.148;2022-10-04T05:09:28;1.33;;;1.23;;
62588;SDS011;58504;48.770;9.148;2022-10-04T05:11:57;1.25;;;1.20;;
62588;SDS011;58504;48.770;9.148;2022-10-04T05:14:31;1.20;;;1.20;;
62588;SDS011;58504;48.770;9.148;2022-10-04T05:16:59;1.02;;;1.02;;
62588;SDS011;58504;48.770;9.148;2022-10-04T05:19:28;1.00;;;1.00;;
62588;SDS011;58504;48.770;9.148;2022-10-04T05:22:00;1.48;;;1.42;;
62588;SDS011;58504;48.770;9.148;2022-10-04T05:24:32;1.20;;;1.10;;
62588;SDS011;58504;48.770;9.148;2022-10-04T05:27:02;0.93;;;0.93;;
62588;SDS011;58504;48.770;9.148;2022-10-04T05:29:31;1.20;;;1.13;;
62588;SDS011;58504;48.770;9.148;2022-10-04T05:32:05;1.00;;;1.00;;
62588;SDS011;58504;48.770;9.148;2022-10-04T05:34:42;0.95;;;0.95;;
62588;SDS011;58504;48.770;9.148;2022-10-04T05:42:20;1.15;;;1.15;;
62588;SDS011;58504;48.770;9.148;2022-10-04T05:44:51;1.10;;;1.10;;
62588;SDS011;58504;48.770;9.148;2022-10-04T05:47:20;1.17;;;1.17;;
62588;SDS011;58504;48.770;9.148;2022-10-04T05:49:52;1.23;;;1.13;;
62588;SDS011;58504;48.770;9.148;2022-10-04T05:52:25;1.40;;;1.30;;
62588;SDS011;58504;48.770;9.148;2022-10-04T05:55:12;1.20;;;1.10;;
62588;SDS011;58504;48.770;9.148;2022-10-04T05:57:53;1.08;;;1.08;;
62588;SDS011;58504;48.770;9.148;2022-10-04T06:00:44;1.15;;;1.10;;
62588;SDS011;58504;48.770;9.148;2022-10-04T06:03:33;2.63;;;1.52;;
62588;SDS011;58504;48.770;9.148;2022-10-04T06:06:13;4.93;;;1.13;;
62588;SDS011;58504;48.770;9.148;2022-10-04T06:08:46;1.00;;;1.00;;
62588;SDS011;58504;48.770;9.148;2022-10-04T06:11:22;1.83;;;1.73;;
62588;SDS011;58504;48.770;9.148;2022-10-04T06:14:17;0.85;;;0.85;;
62588;SDS011;58504;48.770;9.148;2022-10-04T06:17:14;3.22;;;1.20;;
62588;SDS011;58504;48.770;9.148;2022-10-04T06:23:12;2.97;;;1.20;;
62588;SDS011;58504;48.770;9.148;2022-10-04T06:25:43;1.60;;;1.50;;
62588;SDS011;58504;48.770;9.148;2022-10-04T06:28:14;3.60;;;1.35;;
62588;SDS011;58504;48.770;9.148;2022-10-04T06:30:49;1.75;;;1.38;;
62588;SDS011;58504;48.770;9.148;2022-10-04T06:33:33;1.17;;;1.17;;
62588;SDS011;58504;48.770;9.148;2022-10-04T06:36:14;2.28;;;1.40;;
62588;SDS011;58504;48.770;9.148;2022-10-04T06:44:51;2.17;;;1.40;;
62588;SDS011;58504;48.770;9.148;2022-10-04T06:47:45;1.40;;;1.38;;
62588;SDS011;58504;48.770;9.148;2022-10-04T06:50:25;1.02;;;1.00;;
62588;SDS011;58504;48.770;9.148;2022-10-04T06:53:03;1.27;;;1.17;;
62588;SDS011;58504;48.770;9.148;2022-10-04T06:55:52;1.25;;;1.20;;
62588;SDS011;58504;48.770;9.148;2022-10-04T06:58:30;1.33;;;1.23;;
62588;SDS011;58504;48.770;9.148;2022-10-04T07:01:21;1.60;;;1.50;;
62588;SDS011;58504;48.770;9.148;2022-10-04T07:03:52;1.08;;;0.98;;
62588;SDS011;58504;48.770;9.148;2022-10-04T07:06:26;1.38;;;1.25;;
62588;SDS011;58504;48.770;9.148;2022-10-04T07:08:57;1.98;;;1.23;;
62588;SDS011;58504;48.770;9.148;2022-10-04T07:14:03;1.33;;;1.23;;
62588;SDS011;58504;48.770;9.148;2022-10-04T07:16:36;1.45;;;1.17;;
62588;SDS011;58504;48.770;9.148;2022-10-04T07:19:20;1.25;;;1.20;;
62588;SDS011;58504;48.770;9.148;2022-10-04T07:21:53;1.50;;;1.40;;
62588;SDS011;58504;48.770;9.148;2022-10-04T07:24:26;1.35;;;1.00;;
62588;SDS011;58504;48.770;9.148;2022-10-04T07:27:08;1.30;;;1.20;;
62588;SDS011;58504;48.770;9.148;2022-10-04T07:29:38;1.50;;;1.40;;
62588;SDS011;58504;48.770;9.148;2022-10-04T07:32:10;1.63;;;1.52;;
62588;SDS011;58504;48.770;9.148;2022-10-04T07:34:42;1.23;;;1.15;;
62588;SDS011;58504;48.770;9.148;2022-10-04T07:37:13;3.22;;;1.38;;
62588;SDS011;58504;48.770;9.148;2022-10-04T07:39:43;1.15;;;1.15;;
62588;SDS011;58504;48.770;9.148;2022-10-04T07:42:19;1.05;;;1.05;;
62588;SDS011;58504;48.770;9.148;2022-10-04T07:44:54;1.15;;;1.05;;
62588;SDS011;58504;48.770;9.148;2022-10-04T07:47:35;1.63;;;1.45;;
62588;SDS011;58504;48.770;9.148;2022-10-04T07:50:12;2.30;;;1.27;;
62588;SDS011;58504;48.770;9.148;2022-10-04T07:52:49;1.80;;;1.40;;
62588;SDS011;58504;48.770;9.148;2022-10-04T07:55:22;1.67;;;1.35;;
62588;SDS011;58504;48.770;9.148;2022-10-04T07:58:01;1.08;;;1.08;;
62588;SDS011;58504;48.770;9.148;2022-10-04T08:00:46;1.63;;;1.20;;
62588;SDS011;58504;48.770;9.148;2022-10-04T08:03:25;2.17;;;1.15;;
62588;SDS011;58504;48.770;9.148;2022-10-04T08:06:05;2.15;;;1.48;;
62588;SDS011;58504;48.770;9.148;2022-10-04T08:08:41;0.90;;;0.90;;
62588;SDS011;58504;48.770;9.148;2022-10-04T08:11:23;1.92;;;1.15;;
62588;SDS011;58504;48.770;9.148;2022-10-04T08:14:02;1.70;;;1.40;;
62588;SDS011;58504;48.770;9.148;2022-10-04T08:16:42;1.85;;;1.65;;
62588;SDS011;58504;48.770;9.148;2022-10-04T08:19:23;0.95;;;0.95;;
62588;SDS011;58504;48.770;9.148;2022-10-04T08:22:01;1.38;;;1.27;;
62588;SDS011;58504;48.770;9.148;2022-10-04T08:24:32;2.03;;;1.20;;
62588;SDS011;58504;48.770;9.148;2022-10-04T08:27:14;1.13;;;1.13;;
62588;SDS011;58504;48.770;9.148;2022-10-04T08:30:08;1.30;;;1.20;;
62588;SDS011;58504;48.770;9.148;2022-10-04T08:35:33;0.98;;;0.98;;
62588;SDS011;58504;48.770;9.148;2022-10-04T08:38:07;3.03;;;1.15;;
62588;SDS011;58504;48.770;9.148;2022-10-04T08:47:05;1.40;;;1.27;;
62588;SDS011;58504;48.770;9.148;2022-10-04T08:50:05;1.38;;;1.33;;
62588;SDS011;58504;48.770;9.148;2022-10-04T08:52:56;1.38;;;1.27;;
62588;SDS011;58504;48.770;9.148;2022-10-04T08:55:43;1.00;;;1.00;;
62588;SDS011;58504;48.770;9.148;2022-10-04T09:01:26;1.65;;;1.55;;
62588;SDS011;58504;48.770;9.148;2022-10-04T09:04:28;0.95;;;0.95;;
62588;SDS011;58504;48.770;9.148;2022-10-04T09:07:22;1.38;;;1.27;;
62588;SDS011;58504;48.770;9.148;2022-10-04T09:10:19;1.45;;;1.35;;
62588;SDS011;58504;48.770;9.148;2022-10-04T09:13:14;1.95;;;1.50;;
62588;SDS011;58504;48.770;9.148;2022-10-04T09:15:55;1.50;;;1.40;;
62588;SDS011;58504;48.770;9.148;2022-10-04T09:21:48;0.93;;;0.93;;
62588;SDS011;58504;48.770;9.148;2022-10-04T09:24:31;1.30;;;1.30;;
62588;SDS011;58504;48.770;9.148;2022-10-04T09:27:17;1.50;;;1.40;;
62588;SDS011;58504;48.770;9.148;2022-10-04T09:30:00;1.27;;;1.25;;
62588;SDS011;58504;48.770;9.148;2022-10-04T09:32:39;1.35;;;1.25;;
62588;SDS011;58504;48.770;9.148;2022-10-04T09:35:21;1.20;;;1.10;;
62588;SDS011;58504;48.770;9.148;2022-10-04T09:38:04;1.30;;;1.20;;
62588;SDS011;58504;48.770;9.148;2022-10-04T09:40:54;1.35;;;1.30;;
62588;SDS011;58504;48.770;9.148;2022-10-04T09:43:45;1.40;;;1.13;;
62588;SDS011;58504;48.770;9.148;2022-10-04T09:46:37;1.05;;;1.05;;
62588;SDS011;58504;48.770;9.148;2022-10-04T09:49:32;1.48;;;1.38;;
62588;SDS011;58504;48.770;9.148;2022-10-04T09:52:32;1.58;;;1.48;;
62588;SDS011;58504;48.770;9.148;2022-10-04T09:55:14;1.40;;;1.30;;
62588;SDS011;58504;48.770;9.148;2022-10-04T09:58:03;1.50;;;1.30;;
62588;SDS011;58504;48.770;9.148;2022-10-04T10:00:40;1.17;;;1.17;;
62588;SDS011;58504;48.770;9.148;2022-10-04T10:03:29;0.95;;;0.95;;
62588;SDS011;58504;48.770;9.148;2022-10-04T10:06:13;1.40;;;1.30;;
62588;SDS011;58504;48.770;9.148;2022-10-04T10:08:54;1.02;;;1.02;;
62588;SDS011;58504;48.770;9.148;2022-10-04T10:11:33;1.60;;;1.20;;
62588;SDS011;58504;48.770;9.148;2022-10-04T10:17:27;0.98;;;0.98;;
62588;SDS011;58504;48.770;9.148;2022-10-04T10:23:24;0.98;;;0.98;;
62588;SDS011;58504;48.770;9.148;2022-10-04T10:35:51;1.30;;;1.20;;
62588;SDS011;58504;48.770;9.148;2022-10-04T10:38:47;1.40;;;1.30;;
62588;SDS011;58504;48.770;9.148;2022-10-04T10:41:29;1.00;;;1.00;;
62588;SDS011;58504;48.770;9.148;2022-10-04T10:44:16;1.90;;;1.23;;
62588;SDS011;58504;48.770;9.148;2022-10-04T10:47:03;0.98;;;0.98;;
62588;SDS011;58504;48.770;9.148;2022-10-04T10:49:45;0.90;;;0.90;;
62588;SDS011;58504;48.770;9.148;2022-10-04T11:02:12;1.10;;;1.10;;
62588;SDS011;58504;48.770;9.148;2022-10-04T11:04:50;1.30;;;1.23;;
62588;SDS011;58504;48.770;9.148;2022-10-04T11:07:42;1.13;;;1.00;;
62588;SDS011;58504;48.770;9.148;2022-10-04T11:13:21;1.10;;;1.10;;
62588;SDS011;58504;48.770;9.148;2022-10-04T11:16:18;1.23;;;1.05;;
62588;SDS011;58504;48.770;9.148;2022-10-04T11:19:18;1.40;;;1.30;;
62588;SDS011;58504;48.770;9.148;2022-10-04T11:22:21;1.20;;;1.10;;
62588;SDS011;58504;48.770;9.148;2022-10-04T11:28:23;2.50;;;1.08;;
62588;SDS011;58504;48.770;9.148;2022-10-04T11:31:12;0.82;;;0.82;;
62588;SDS011;58504;48.770;9.148;2022-10-04T11:37:28;0.90;;;0.90;;
62588;SDS011;58504;48.770;9.148;2022-10-04T11:40:11;1.52;;;1.42;;
62588;SDS011;58504;48.770;9.148;2022-10-04T11:42:57;1.40;;;1.30;;
62588;SDS011;58504;48.770;9.148;2022-10-04T11:45:52;0.90;;;0.90;;
62588;SDS011;58504;48.770;9.148;2022-10-04T11:48:31;1.17;;;1.17;;
62588;SDS011;58504;48.770;9.148;2022-10-04T11:57:25;1.00;;;0.98;;
62588;SDS011;58504;48.770;9.148;2022-10-04T11:59:59;0.85;;;0.85;;
62588;SDS011;58504;48.770;9.148;2022-10-04T12:02:55;1.10;;;1.10;;
62588;SDS011;58504;48.770;9.148;2022-10-04T12:08:41;1.08;;;1.08;;
62588;SDS011;58504;48.770;9.148;2022-10-04T12:11:24;1.00;;;1.00;;
62588;SDS011;58504;48.770;9.148;2022-10-04T12:14:34;1.13;;;0.93;;
62588;SDS011;58504;48.770;9.148;2022-10-04T12:17:19;1.27;;;0.95;;
62588;SDS011;58504;48.770;9.148;2022-10-04T12:23:59;1.33;;;1.00;;
62588;SDS011;58504;48.770;9.148;2022-10-04T12:32:36;0.90;;;0.90;;
62588;SDS011;58504;48.770;9.148;2022-10-04T12:35:13;0.80;;;0.80;;
62588;SDS011;58504;48.770;9.148;2022-10-04T12:37:58;0.95;;;0.95;;
62588;SDS011;58504;48.770;9.148;2022-10-04T12:40:47;0.90;;;0.90;;
62588;SDS011;58504;48.770;9.148;2022-10-04T12:43:25;1.20;;;1.20;;
62588;SDS011;58504;48.770;9.148;2022-10-04T12:46:05;0.68;;;0.68;;
62588;SDS011;58504;48.770;9.148;2022-10-04T12:48:51;1.10;;;1.10;;
62588;SDS011;58504;48.770;9.148;2022-10-04T12:51:32;0.90;;;0.90;;
62588;SDS011;58504;48.770;9.148;2022-10-04T12:54:13;1.27;;;1.17;;
62588;SDS011;58504;48.770;9.148;2022-10-04T12:56:58;1.20;;;1.08;;
62588;SDS011;58504;48.770;9.148;2022-10-04T12:59:50;1.27;;;1.17;;
62588;SDS011;58504;48.770;9.148;2022-10-04T13:02:29;0.98;;;0.98;;
62588;SDS011;58504;48.770;9.148;2022-10-04T13:05:21;0.95;;;0.95;;
62588;SDS011;58504;48.770;9.148;2022-10-04T13:08:01;0.90;;;0.90;;
62588;SDS011;58504;48.770;9.148;2022-10-04T13:13:47;1.40;;;1.30;;
62588;SDS011;58504;48.770;9.148;2022-10-04T13:16:38;0.75;;;0.75;;
62588;SDS011;58504;48.770;9.148;2022-10-04T13:19:18;1.30;;;1.30;;
62588;SDS011;58504;48.770;9.148;2022-10-04T13:21:54;1.17;;;1.00;;
62588;SDS011;58504;48.770;9.148;2022-10-04T13:24:32;0.88;;;0.88;;
62588;SDS011;58504;48.770;9.148;2022-10-04T13:27:20;1.10;;;1.10;;
62588;SDS011;58504;48.770;9.148;2022-10-04T13:29:57;1.50;;;1.10;;
62588;SDS011;58504;48.770;9.148;2022-10-04T13:32:30;0.85;;;0.85;;
62588;SDS011;58504;48.770;9.148;2022-10-04T13:35:07;1.08;;;0.90;;
62588;SDS011;58504;48.770;9.148;2022-10-04T13:37:42;0.90;;;0.90;;
62588;SDS011;58504;48.770;9.148;2022-10-04T13:43:22;1.20;;;1.20;;
62588;SDS011;58504;48.770;9.148;2022-10-04T13:46:05;1.00;;;1.00;;
62588;SDS011;58504;48.770;9.148;2022-10-04T13:48:40;0.85;;;0.85;;
62588;SDS011;58504;48.770;9.148;2022-10-04T13:51:24;1.13;;;1.13;;
62588;SDS011;58504;48.770;9.148;2022-10-04T13:54:04;1.30;;;1.30;;
62588;SDS011;58504;48.770;9.148;2022-10-04T13:57:02;1.10;;;1.10;;
62588;SDS011;58504;48.770;9.148;2022-10-04T13:59:41;1.35;;;1.10;;
62588;SDS011;58504;48.770;9.148;2022-10-04T14:05:26;0.95;;;0.95;;
62588;SDS011;58504;48.770;9.148;2022-10-04T14:08:22;1.00;;;1.00;;
62588;SDS011;58504;48.770;9.148;2022-10-04T14:11:13;1.15;;;1.13;;
62588;SDS011;58504;48.770;9.148;2022-10-04T14:14:08;1.10;;;1.00;;
62588;SDS011;58504;48.770;9.148;2022-10-04T14:20:08;1.10;;;1.10;;
62588;SDS011;58504;48.770;9.148;2022-10-04T14:23:00;3.75;;;0.95;;
62588;SDS011;58504;48.770;9.148;2022-10-04T14:25:55;1.63;;;1.30;;
62588;SDS011;58504;48.770;9.148;2022-10-04T14:28:52;1.02;;;0.93;;
62588;SDS011;58504;48.770;9.148;2022-10-04T14:31:41;0.90;;;0.90;;
62588;SDS011;58504;48.770;9.148;2022-10-04T14:34:31;0.88;;;0.88;;
62588;SDS011;58504;48.770;9.148;2022-10-04T14:37:23;1.33;;;1.23;;
62588;SDS011;58504;48.770;9.148;2022-10-04T14:40:25;0.95;;;0.95;;
62588;SDS011;58504;48.770;9.148;2022-10-04T14:43:07;2.22;;;1.00;;
62588;SDS011;58504;48.770;9.148;2022-10-04T14:45:43;0.70;;;0.70;;
62588;SDS011;58504;48.770;9.148;2022-10-04T14:48:34;1.17;;;1.17;;
62588;SDS011;58504;48.770;9.148;2022-10-04T14:51:18;1.08;;;0.82;;
62588;SDS011;58504;48.770;9.148;2022-10-04T14:53:54;0.93;;;0.93;;
62588;SDS011;58504;48.770;9.148;2022-10-04T14:56:34;1.15;;;1.05;;
62588;SDS011;58504;48.770;9.148;2022-10-04T14:59:20;1.00;;;0.95;;
62588;SDS011;58504;48.770;9.148;2022-10-04T15:02:18;1.20;;;1.10;;
62588;SDS011;58504;48.770;9.148;2022-10-04T15:05:18;1.20;;;1.20;;
62588;SDS011;58504;48.770;9.148;2022-10-04T15:08:13;1.10;;;1.10;;
62588;SDS011;58504;48.770;9.148;2022-10-04T15:11:03;1.20;;;1.20;;
62588;SDS011;58504;48.770;9.148;2022-10-04T15:13:33;1.40;;;1.15;;
62588;SDS011;58504;48.770;9.148;2022-10-04T15:16:08;1.80;;;1.15;;
62588;SDS011;58504;48.770;9.148;2022-10-04T15:18:49;1.13;;;1.02;;
62588;SDS011;58504;48.770;9.148;2022-10-04T15:21:37;1.10;;;1.10;;
62588;SDS011;58504;48.770;9.148;2022-10-04T15:24:21;0.75;;;0.75;;
62588;SDS011;58504;48.770;9.148;2022-10-04T15:26:54;0.73;;;0.73;;
62588;SDS011;58504;48.770;9.148;2022-10-04T15:29:50;0.88;;;0.88;;
62588;SDS011;58504;48.770;9.148;2022-10-04T15:32:27;0.70;;;0.70;;
62588;SDS011;58504;48.770;9.148;2022-10-04T15:35:01;1.38;;;1.20;;
62588;SDS011;58504;48.770;9.148;2022-10-04T15:37:40;0.70;;;0.70;;
62588;SDS011;58504;48.770;9.148;2022-10-04T15:40:24;1.30;;;1.20;;
62588;SDS011;58504;48.770;9.148;2022-10-04T15:43:08;2.28;;;0.93;;
62588;SDS011;58504;48.770;9.148;2022-10-04T15:52:11;1.13;;;1.13;;
62588;SDS011;58504;48.770;9.148;2022-10-04T15:54:47;1.02;;;0.90;;
62588;SDS011;58504;48.770;9.148;2022-10-04T15:57:34;1.02;;;1.00;;
62588;SDS011;58504;48.770;9.148;2022-10-04T16:00:19;0.98;;;0.98;;
62588;SDS011;58504;48.770;9.148;2022-10-04T16:02:53;1.13;;;1.05;;
62588;SDS011;58504;48.770;9.148;2022-10-04T16:05:31;1.05;;;0.82;;
62588;SDS011;58504;48.770;9.148;2022-10-04T16:08:21;0.70;;;0.70;;
62588;SDS011;58504;48.770;9.148;2022-10-04T16:11:09;0.90;;;0.90;;
62588;SDS011;58504;48.770;9.148;2022-10-04T16:14:07;0.80;;;0.80;;
62588;SDS011;58504;48.770;9.148;2022-10-04T16:19:56;0.93;;;0.93;;
62588;SDS011;58504;48.770;9.148;2022-10-04T16:22:42;1.13;;;1.02;;
62588;SDS011;58504;48.770;9.148;2022-10-04T16:25:50;1.13;;;1.10;;
62588;SDS011;58504;48.770;9.148;2022-10-04T16:28:21;0.88;;;0.88;;
62588;SDS011;58504;48.770;9.148;2022-10-04T16:34:23;0.90;;;0.90;;
62588;SDS011;58504;48.770;9.148;2022-10-04T16:37:15;0.80;;;0.80;;
62588;SDS011;58504;48.770;9.148;2022-10-04T16:39:50;0.77;;;0.77;;
62588;SDS011;58504;48.770;9.148;2022-10-04T16:42:26;0.88;;;0.88;;
62588;SDS011;58504;48.770;9.148;2022-10-04T16:47:56;0.82;;;0.82;;
62588;SDS011;58504;48.770;9.148;2022-10-04T16:50:46;0.80;;;0.80;;
62588;SDS011;58504;48.770;9.148;2022-10-04T16:53:24;0.90;;;0.90;;
62588;SDS011;58504;48.770;9.148;2022-10-04T16:56:08;0.80;;;0.80;;
62588;SDS011;58504;48.770;9.148;2022-10-04T16:58:50;0.80;;;0.80;;
62588;SDS011;58504;48.770;9.148;2022-10-04T17:01:20;0.95;;;0.95;;
62588;SDS011;58504;48.770;9.148;2022-10-04T17:04:07;0.90;;;0.90;;
62588;SDS011;58504;48.770;9.148;2022-10-04T17:06:45;1.15;;;1.15;;
62588;SDS011;58504;48.770;9.148;2022-10-04T17:09:17;0.90;;;0.90;;
62588;SDS011;58504;48.770;9.148;2022-10-04T17:11:56;0.98;;;0.98;;
62588;SDS011;58504;48.770;9.148;2022-10-04T17:14:45;0.88;;;0.88;;
62588;SDS011;58504;48.770;9.148;2022-10-04T17:17:21;0.90;;;0.90;;
62588;SDS011;58504;48.770;9.148;2022-10-04T17:20:00;0.68;;;0.60;;
62588;SDS011;58504;48.770;9.148;2022-10-04T17:22:34;0.93;;;0.93;;
62588;SDS011;58504;48.770;9.148;2022-10-04T17:25:16;0.88;;;0.88;;
62588;SDS011;58504;48.770;9.148;2022-10-04T17:27:49;0.80;;;0.80;;
62588;SDS011;58504;48.770;9.148;2022-10-04T17:30:21;0.77;;;0.77;;
62588;SDS011;58504;48.770;9.148;2022-10-04T17:39:06;0.85;;;0.85;;
62588;SDS011;58504;48.770;9.148;2022-10-04T17:41:54;1.48;;;0.82;;
62588;SDS011;58504;48.770;9.148;2022-10-04T17:44:38;0.77;;;0.77;;
62588;SDS011;58504;48.770;9.148;2022-10-04T17:47:20;0.85;;;0.85;;
62588;SDS011;58504;48.770;9.148;2022-10-04T17:49:53;1.33;;;0.80;;
62588;SDS011;58504;48.770;9.148;2022-10-04T17:52:42;0.70;;;0.70;;
62588;SDS011;58504;48.770;9.148;2022-10-04T17:55:35;0.82;;;0.82;;
62588;SDS011;58504;48.770;9.148;2022-10-04T17:58:12;0.68;;;0.68;;
62588;SDS011;58504;48.770;9.148;2022-10-04T18:03:32;0.70;;;0.70;;
62588;SDS011;58504;48.770;9.148;2022-10-04T18:06:10;0.70;;;0.70;;
62588;SDS011;58504;48.770;9.148;2022-10-04T18:08:43;2.45;;;0.70;;
62588;SDS011;58504;48.770;9.148;2022-10-04T18:11:17;0.60;;;0.60;;